sensor_id;sensor_type;location;lat;lon;timestamp;temperature;humidity
11152;DHT22;5630;49.342;10.802;2024-02-14T00:01:17;3.80;99.90
11152;DHT22;5630;49.342;10.802;2024-02-14T00:03:43;3.70;99.90
11152;DHT22;5630;49.342;10.802;2024-02-14T00:06:09;3.80;99.90
11152;DHT22;5630;49.342;10.802;2024-02-14T00:08:37;3.70;99.90
11152;DHT22;5630;49.342;10.802;2024-02-14T00:11:03;3.70;99.90
11152;DHT22;5630;49.342;10.802;2024-02-14T00:13:29;3.70;99.90
11152;DHT22;5630;49.342;10.802;2024-02-14T00:15:54;3.70;99.90
11152;DHT22;5630;49.342;10.802;2024-02-14T00:18:22;3.80;99.90
11152;DHT22;5630;49.342;10.802;2024-02-14T00:20:48;3.70;99.90
11152;DHT22;5630;49.342;10.802;2024-02-14T00:23:14;3.80;99.90
11152;DHT22;5630;49.342;10.802;2024-02-14T00:25:39;3.80;99.90
11152;DHT22;5630;49.342;10.802;2024-02-14T00:28:05;3.80;99.90
11152;DHT22;5630;49.342;10.802;2024-02-14T00:30:31;3.80;99.90
11152;DHT22;5630;49.342;10.802;2024-02-14T00:32:57;3.90;99.90
11152;DHT22;5630;49.342;10.802;2024-02-14T00:35:22;3.90;99.90
11152;DHT22;5630;49.342;10.802;2024-02-14T00:37:48;3.90;99.90
11152;DHT22;5630;49.342;10.802;2024-02-14T00:40:14;3.90;99.90
11152;DHT22;5630;49.342;10.802;2024-02-14T00:42:40;3.90;99.90
11152;DHT22;5630;49.342;10.802;2024-02-14T00:45:06;3.90;99.90
11152;DHT22;5630;49.342;10.802;2024-02-14T00:47:34;3.90;99.90
11152;DHT22;5630;49.342;10.802;2024-02-14T00:50:00;3.90;99.90
11152;DHT22;5630;49.342;10.802;2024-02-14T00:52:26;3.90;99.90
11152;DHT22;5630;49.342;10.802;2024-02-14T00:54:52;3.90;99.90
11152;DHT22;5630;49.342;10.802;2024-02-14T00:57:17;3.80;99.90
11152;DHT22;5630;49.342;10.802;2024-02-14T00:59:44;3.80;99.90
11152;DHT22;5630;49.342;10.802;2024-02-14T01:02:10;3.80;99.90
11152;DHT22;5630;49.342;10.802;2024-02-14T01:04:36;3.80;99.90
11152;DHT22;5630;49.342;10.802;2024-02-14T01:07:03;3.70;99.90
11152;DHT22;5630;49.342;10.802;2024-02-14T01:09:28;3.70;99.90
11152;DHT22;5630;49.342;10.802;2024-02-14T01:11:54;3.70;99.90
11152;DHT22;5630;49.342;10.802;2024-02-14T01:14:20;3.70;99.90
11152;DHT22;5630;49.342;10.802;2024-02-14T01:16:47;3.70;99.90
11152;DHT22;5630;49.342;10.802;2024-02-14T01:19:13;3.60;99.90
11152;DHT22;5630;49.342;10.802;2024-02-14T01:21:39;3.60;99.90
11152;DHT22;5630;49.342;10.802;2024-02-14T01:24:06;3.60;99.90
11152;DHT22;5630;49.342;10.802;2024-02-14T01:26:34;3.60;99.90
11152;DHT22;5630;49.342;10.802;2024-02-14T01:28:59;3.60;99.90
11152;DHT22;5630;49.342;10.802;2024-02-14T01:31:26;3.60;99.90
11152;DHT22;5630;49.342;10.802;2024-02-14T01:33:53;3.60;99.90
11152;DHT22;5630;49.342;10.802;2024-02-14T01:36:18;3.50;99.90
11152;DHT22;5630;49.342;10.802;2024-02-14T01:38:44;3.50;99.90
11152;DHT22;5630;49.342;10.802;2024-02-14T01:41:10;3.50;99.90
11152;DHT22;5630;49.342;10.802;2024-02-14T01:43:36;3.40;99.90
11152;DHT22;5630;49.342;10.802;2024-02-14T01:46:06;3.50;99.90
11152;DHT22;5630;49.342;10.802;2024-02-14T01:48:34;3.50;99.90
11152;DHT22;5630;49.342;10.802;2024-02-14T01:51:01;3.50;99.90
11152;DHT22;5630;49.342;10.802;2024-02-14T01:53:29;3.50;99.90
11152;DHT22;5630;49.342;10.802;2024-02-14T01:55:57;3.50;99.90
11152;DHT22;5630;49.342;10.802;2024-02-14T01:58:24;3.40;99.90
11152;DHT22;5630;49.342;10.802;2024-02-14T02:00:51;3.40;99.90
11152;DHT22;5630;49.342;10.802;2024-02-14T02:03:21;3.40;99.90
11152;DHT22;5630;49.342;10.802;2024-02-14T02:05:48;3.30;99.90
11152;DHT22;5630;49.342;10.802;2024-02-14T02:08:14;3.30;99.90
11152;DHT22;5630;49.342;10.802;2024-02-14T02:10:40;3.30;99.90
11152;DHT22;5630;49.342;10.802;2024-02-14T02:13:06;3.30;99.90
11152;DHT22;5630;49.342;10.802;2024-02-14T02:15:31;3.30;99.90
11152;DHT22;5630;49.342;10.802;2024-02-14T02:17:57;3.20;99.90
11152;DHT22;5630;49.342;10.802;2024-02-14T02:20:24;3.30;99.90
11152;DHT22;5630;49.342;10.802;2024-02-14T02:22:53;3.20;99.90
11152;DHT22;5630;49.342;10.802;2024-02-14T02:25:18;3.30;99.90
11152;DHT22;5630;49.342;10.802;2024-02-14T02:27:49;3.30;99.90
11152;DHT22;5630;49.342;10.802;2024-02-14T02:30:14;3.30;99.90
11152;DHT22;5630;49.342;10.802;2024-02-14T02:32:40;3.30;99.90
11152;DHT22;5630;49.342;10.802;2024-02-14T02:35:06;3.30;99.90
11152;DHT22;5630;49.342;10.802;2024-02-14T02:37:33;3.30;99.90
11152;DHT22;5630;49.342;10.802;2024-02-14T02:39:59;3.30;99.90
11152;DHT22;5630;49.342;10.802;2024-02-14T02:42:24;3.30;99.90
11152;DHT22;5630;49.342;10.802;2024-02-14T02:44:53;3.40;99.90
11152;DHT22;5630;49.342;10.802;2024-02-14T02:47:19;3.40;99.90
11152;DHT22;5630;49.342;10.802;2024-02-14T02:49:44;3.40;99.90
11152;DHT22;5630;49.342;10.802;2024-02-14T02:52:11;3.40;99.90
11152;DHT22;5630;49.342;10.802;2024-02-14T02:54:37;3.40;99.90
11152;DHT22;5630;49.342;10.802;2024-02-14T02:57:07;3.40;99.90
11152;DHT22;5630;49.342;10.802;2024-02-14T02:59:32;3.50;99.90
11152;DHT22;5630;49.342;10.802;2024-02-14T03:01:58;3.50;99.90
11152;DHT22;5630;49.342;10.802;2024-02-14T03:04:24;3.50;99.90
11152;DHT22;5630;49.342;10.802;2024-02-14T03:06:50;3.50;99.90
11152;DHT22;5630;49.342;10.802;2024-02-14T03:09:16;3.50;99.90
11152;DHT22;5630;49.342;10.802;2024-02-14T03:11:46;3.50;99.90
11152;DHT22;5630;49.342;10.802;2024-02-14T03:14:13;3.50;99.90
11152;DHT22;5630;49.342;10.802;2024-02-14T03:16:38;3.50;99.90
11152;DHT22;5630;49.342;10.802;2024-02-14T03:19:04;3.50;99.90
11152;DHT22;5630;49.342;10.802;2024-02-14T03:21:33;3.50;99.90
11152;DHT22;5630;49.342;10.802;2024-02-14T03:24:01;3.50;99.90
11152;DHT22;5630;49.342;10.802;2024-02-14T03:26:28;3.50;99.90
11152;DHT22;5630;49.342;10.802;2024-02-14T03:28:54;3.50;99.90
11152;DHT22;5630;49.342;10.802;2024-02-14T03:31:20;3.50;99.90
11152;DHT22;5630;49.342;10.802;2024-02-14T03:33:46;3.50;99.90
11152;DHT22;5630;49.342;10.802;2024-02-14T03:36:11;3.40;99.90
11152;DHT22;5630;49.342;10.802;2024-02-14T03:38:37;3.40;99.90
11152;DHT22;5630;49.342;10.802;2024-02-14T03:41:05;3.50;99.90
11152;DHT22;5630;49.342;10.802;2024-02-14T03:43:30;3.40;99.90
11152;DHT22;5630;49.342;10.802;2024-02-14T03:45:57;3.40;99.90
11152;DHT22;5630;49.342;10.802;2024-02-14T03:48:23;3.40;99.90
11152;DHT22;5630;49.342;10.802;2024-02-14T03:50:48;3.40;99.90
11152;DHT22;5630;49.342;10.802;2024-02-14T03:53:14;3.40;99.90
11152;DHT22;5630;49.342;10.802;2024-02-14T03:55:40;3.40;99.90
11152;DHT22;5630;49.342;10.802;2024-02-14T03:58:06;3.40;99.90
11152;DHT22;5630;49.342;10.802;2024-02-14T04:00:34;3.40;99.90
11152;DHT22;5630;49.342;10.802;2024-02-14T04:03:01;3.40;99.90
11152;DHT22;5630;49.342;10.802;2024-02-14T04:05:28;3.40;99.90
11152;DHT22;5630;49.342;10.802;2024-02-14T04:07:54;3.50;99.90
11152;DHT22;5630;49.342;10.802;2024-02-14T04:10:21;3.50;99.90
11152;DHT22;5630;49.342;10.802;2024-02-14T04:12:47;3.60;99.90
11152;DHT22;5630;49.342;10.802;2024-02-14T04:15:12;3.60;99.90
11152;DHT22;5630;49.342;10.802;2024-02-14T04:17:39;3.60;99.90
11152;DHT22;5630;49.342;10.802;2024-02-14T04:20:05;3.60;99.90
11152;DHT22;5630;49.342;10.802;2024-02-14T04:22:31;3.60;99.90
11152;DHT22;5630;49.342;10.802;2024-02-14T04:24:56;3.60;99.90
11152;DHT22;5630;49.342;10.802;2024-02-14T04:27:22;3.60;99.90
11152;DHT22;5630;49.342;10.802;2024-02-14T04:29:48;3.60;99.90
11152;DHT22;5630;49.342;10.802;2024-02-14T04:32:14;3.60;99.90
11152;DHT22;5630;49.342;10.802;2024-02-14T04:34:39;3.60;99.90
11152;DHT22;5630;49.342;10.802;2024-02-14T04:37:06;3.60;99.90
11152;DHT22;5630;49.342;10.802;2024-02-14T04:39:39;3.70;99.90
11152;DHT22;5630;49.342;10.802;2024-02-14T04:42:05;3.60;99.90
11152;DHT22;5630;49.342;10.802;2024-02-14T04:44:31;3.70;99.90
11152;DHT22;5630;49.342;10.802;2024-02-14T04:46:57;3.70;99.90
11152;DHT22;5630;49.342;10.802;2024-02-14T04:49:29;3.70;99.90
11152;DHT22;5630;49.342;10.802;2024-02-14T04:51:55;3.70;99.90
11152;DHT22;5630;49.342;10.802;2024-02-14T04:54:21;3.80;99.90
11152;DHT22;5630;49.342;10.802;2024-02-14T04:56:46;3.80;99.90
11152;DHT22;5630;49.342;10.802;2024-02-14T04:59:12;3.80;99.90
11152;DHT22;5630;49.342;10.802;2024-02-14T05:01:38;3.70;99.90
11152;DHT22;5630;49.342;10.802;2024-02-14T05:04:05;3.70;99.90
11152;DHT22;5630;49.342;10.802;2024-02-14T05:06:32;3.80;99.90
11152;DHT22;5630;49.342;10.802;2024-02-14T05:08:58;3.80;99.90
11152;DHT22;5630;49.342;10.802;2024-02-14T05:11:23;3.80;99.90
11152;DHT22;5630;49.342;10.802;2024-02-14T05:13:49;3.80;99.90
11152;DHT22;5630;49.342;10.802;2024-02-14T05:16:21;3.80;99.90
11152;DHT22;5630;49.342;10.802;2024-02-14T05:18:47;3.80;99.90
11152;DHT22;5630;49.342;10.802;2024-02-14T05:21:13;3.80;99.90
11152;DHT22;5630;49.342;10.802;2024-02-14T05:23:39;3.80;99.90
11152;DHT22;5630;49.342;10.802;2024-02-14T05:26:05;3.90;99.90
11152;DHT22;5630;49.342;10.802;2024-02-14T05:28:30;3.80;99.90
11152;DHT22;5630;49.342;10.802;2024-02-14T05:30:57;3.90;99.90
11152;DHT22;5630;49.342;10.802;2024-02-14T05:33:23;3.90;99.90
11152;DHT22;5630;49.342;10.802;2024-02-14T05:35:49;3.90;99.90
11152;DHT22;5630;49.342;10.802;2024-02-14T05:38:15;4.00;99.90
11152;DHT22;5630;49.342;10.802;2024-02-14T05:40:41;4.00;99.90
11152;DHT22;5630;49.342;10.802;2024-02-14T05:43:09;4.10;99.90
11152;DHT22;5630;49.342;10.802;2024-02-14T05:45:35;4.00;99.90
11152;DHT22;5630;49.342;10.802;2024-02-14T05:48:00;4.10;99.90
11152;DHT22;5630;49.342;10.802;2024-02-14T05:50:26;4.10;99.90
11152;DHT22;5630;49.342;10.802;2024-02-14T05:52:52;4.10;99.90
11152;DHT22;5630;49.342;10.802;2024-02-14T05:55:17;4.10;99.90
11152;DHT22;5630;49.342;10.802;2024-02-14T05:57:43;4.20;99.90
11152;DHT22;5630;49.342;10.802;2024-02-14T06:00:09;4.20;99.90
11152;DHT22;5630;49.342;10.802;2024-02-14T06:02:36;4.20;99.90
11152;DHT22;5630;49.342;10.802;2024-02-14T06:05:02;4.30;99.90
11152;DHT22;5630;49.342;10.802;2024-02-14T06:07:27;4.30;99.90
11152;DHT22;5630;49.342;10.802;2024-02-14T06:09:53;4.30;99.90
11152;DHT22;5630;49.342;10.802;2024-02-14T06:12:22;4.40;99.90
11152;DHT22;5630;49.342;10.802;2024-02-14T06:14:49;4.40;99.90
11152;DHT22;5630;49.342;10.802;2024-02-14T06:17:14;4.40;99.90
11152;DHT22;5630;49.342;10.802;2024-02-14T06:19:40;4.30;99.90
11152;DHT22;5630;49.342;10.802;2024-02-14T06:22:06;4.30;99.90
11152;DHT22;5630;49.342;10.802;2024-02-14T06:24:32;4.30;99.90
11152;DHT22;5630;49.342;10.802;2024-02-14T06:26:57;4.40;99.90
11152;DHT22;5630;49.342;10.802;2024-02-14T06:29:23;4.40;99.90
11152;DHT22;5630;49.342;10.802;2024-02-14T06:31:48;4.40;99.90
11152;DHT22;5630;49.342;10.802;2024-02-14T06:34:15;4.40;99.90
11152;DHT22;5630;49.342;10.802;2024-02-14T06:36:40;4.40;99.90
11152;DHT22;5630;49.342;10.802;2024-02-14T06:39:06;4.40;99.90
11152;DHT22;5630;49.342;10.802;2024-02-14T06:41:32;4.30;99.90
11152;DHT22;5630;49.342;10.802;2024-02-14T06:43:58;4.40;99.90
11152;DHT22;5630;49.342;10.802;2024-02-14T06:46:23;4.40;99.90
11152;DHT22;5630;49.342;10.802;2024-02-14T06:48:49;4.40;99.90
11152;DHT22;5630;49.342;10.802;2024-02-14T06:51:14;4.40;99.90
11152;DHT22;5630;49.342;10.802;2024-02-14T06:53:40;4.40;99.90
11152;DHT22;5630;49.342;10.802;2024-02-14T06:56:06;4.40;99.90
11152;DHT22;5630;49.342;10.802;2024-02-14T06:58:31;4.40;99.90
11152;DHT22;5630;49.342;10.802;2024-02-14T07:00:57;4.50;99.90
11152;DHT22;5630;49.342;10.802;2024-02-14T07:03:22;4.50;99.90
11152;DHT22;5630;49.342;10.802;2024-02-14T07:05:48;4.60;99.90
11152;DHT22;5630;49.342;10.802;2024-02-14T07:08:14;4.60;99.90
11152;DHT22;5630;49.342;10.802;2024-02-14T07:10:40;4.60;99.90
11152;DHT22;5630;49.342;10.802;2024-02-14T07:13:05;4.60;99.90
11152;DHT22;5630;49.342;10.802;2024-02-14T07:15:31;4.70;99.90
11152;DHT22;5630;49.342;10.802;2024-02-14T07:17:57;4.80;99.90
11152;DHT22;5630;49.342;10.802;2024-02-14T07:20:24;4.80;99.90
11152;DHT22;5630;49.342;10.802;2024-02-14T07:22:52;4.90;99.90
11152;DHT22;5630;49.342;10.802;2024-02-14T07:25:19;4.90;99.90
11152;DHT22;5630;49.342;10.802;2024-02-14T07:27:45;4.90;99.90
11152;DHT22;5630;49.342;10.802;2024-02-14T07:30:12;5.00;99.90
11152;DHT22;5630;49.342;10.802;2024-02-14T07:32:37;5.10;99.90
11152;DHT22;5630;49.342;10.802;2024-02-14T07:35:06;5.10;99.90
11152;DHT22;5630;49.342;10.802;2024-02-14T07:37:32;5.30;99.90
11152;DHT22;5630;49.342;10.802;2024-02-14T07:39:58;5.30;99.90
11152;DHT22;5630;49.342;10.802;2024-02-14T07:42:23;5.40;99.90
11152;DHT22;5630;49.342;10.802;2024-02-14T07:44:49;5.40;99.90
11152;DHT22;5630;49.342;10.802;2024-02-14T07:47:14;5.40;99.90
11152;DHT22;5630;49.342;10.802;2024-02-14T07:49:40;5.50;99.90
11152;DHT22;5630;49.342;10.802;2024-02-14T07:52:06;5.40;99.90
11152;DHT22;5630;49.342;10.802;2024-02-14T07:54:32;5.60;99.90
11152;DHT22;5630;49.342;10.802;2024-02-14T07:56:57;5.60;99.90
11152;DHT22;5630;49.342;10.802;2024-02-14T07:59:23;5.70;99.90
11152;DHT22;5630;49.342;10.802;2024-02-14T08:01:49;5.80;99.90
11152;DHT22;5630;49.342;10.802;2024-02-14T08:04:14;5.80;99.90
11152;DHT22;5630;49.342;10.802;2024-02-14T08:06:41;5.80;99.90
11152;DHT22;5630;49.342;10.802;2024-02-14T08:09:06;5.80;99.90
11152;DHT22;5630;49.342;10.802;2024-02-14T08:11:35;5.90;99.90
11152;DHT22;5630;49.342;10.802;2024-02-14T08:14:01;5.90;99.90
11152;DHT22;5630;49.342;10.802;2024-02-14T08:16:26;5.90;99.90
11152;DHT22;5630;49.342;10.802;2024-02-14T08:18:52;5.90;99.90
11152;DHT22;5630;49.342;10.802;2024-02-14T08:21:27;6.00;99.90
11152;DHT22;5630;49.342;10.802;2024-02-14T08:23:53;6.00;99.90
11152;DHT22;5630;49.342;10.802;2024-02-14T08:26:19;6.00;99.90
11152;DHT22;5630;49.342;10.802;2024-02-14T08:28:45;6.10;99.90
11152;DHT22;5630;49.342;10.802;2024-02-14T08:31:12;6.10;99.90
11152;DHT22;5630;49.342;10.802;2024-02-14T08:33:38;6.20;99.90
11152;DHT22;5630;49.342;10.802;2024-02-14T08:36:05;6.20;99.90
11152;DHT22;5630;49.342;10.802;2024-02-14T08:38:31;6.30;99.90
11152;DHT22;5630;49.342;10.802;2024-02-14T08:50:45;7.00;99.90
11152;DHT22;5630;49.342;10.802;2024-02-14T08:53:12;8.00;99.90
11152;DHT22;5630;49.342;10.802;2024-02-14T08:55:41;7.60;99.90
11152;DHT22;5630;49.342;10.802;2024-02-14T08:58:06;7.40;99.90
11152;DHT22;5630;49.342;10.802;2024-02-14T09:00:35;7.30;99.90
11152;DHT22;5630;49.342;10.802;2024-02-14T09:03:02;7.20;99.90
11152;DHT22;5630;49.342;10.802;2024-02-14T09:05:28;7.10;99.90
11152;DHT22;5630;49.342;10.802;2024-02-14T09:07:54;7.10;99.90
11152;DHT22;5630;49.342;10.802;2024-02-14T09:10:20;6.90;99.90
11152;DHT22;5630;49.342;10.802;2024-02-14T09:12:46;7.00;99.90
11152;DHT22;5630;49.342;10.802;2024-02-14T09:15:12;7.00;99.90
11152;DHT22;5630;49.342;10.802;2024-02-14T09:17:38;7.10;99.90
11152;DHT22;5630;49.342;10.802;2024-02-14T09:20:06;7.20;99.90
11152;DHT22;5630;49.342;10.802;2024-02-14T09:22:38;7.30;99.90
11152;DHT22;5630;49.342;10.802;2024-02-14T09:25:04;7.40;99.90
11152;DHT22;5630;49.342;10.802;2024-02-14T09:27:30;7.60;99.90
11152;DHT22;5630;49.342;10.802;2024-02-14T09:29:56;7.80;99.90
11152;DHT22;5630;49.342;10.802;2024-02-14T09:32:21;7.80;99.90
11152;DHT22;5630;49.342;10.802;2024-02-14T09:34:47;7.80;99.90
11152;DHT22;5630;49.342;10.802;2024-02-14T09:37:13;7.90;99.90
11152;DHT22;5630;49.342;10.802;2024-02-14T09:39:39;8.00;99.90
11152;DHT22;5630;49.342;10.802;2024-02-14T09:42:16;8.00;99.90
11152;DHT22;5630;49.342;10.802;2024-02-14T09:44:45;8.10;99.90
11152;DHT22;5630;49.342;10.802;2024-02-14T09:47:12;8.10;99.90
11152;DHT22;5630;49.342;10.802;2024-02-14T09:49:39;8.10;99.90
11152;DHT22;5630;49.342;10.802;2024-02-14T09:52:05;8.20;99.90
11152;DHT22;5630;49.342;10.802;2024-02-14T09:54:32;8.30;99.90
11152;DHT22;5630;49.342;10.802;2024-02-14T09:57:01;8.40;99.90
11152;DHT22;5630;49.342;10.802;2024-02-14T09:59:28;8.50;99.90
11152;DHT22;5630;49.342;10.802;2024-02-14T10:01:54;8.60;99.90
11152;DHT22;5630;49.342;10.802;2024-02-14T10:04:20;8.80;99.90
11152;DHT22;5630;49.342;10.802;2024-02-14T10:06:46;8.80;99.90
11152;DHT22;5630;49.342;10.802;2024-02-14T10:09:11;8.80;99.90
11152;DHT22;5630;49.342;10.802;2024-02-14T10:11:38;8.80;99.90
11152;DHT22;5630;49.342;10.802;2024-02-14T10:14:05;8.80;99.90
11152;DHT22;5630;49.342;10.802;2024-02-14T10:16:35;8.80;99.90
11152;DHT22;5630;49.342;10.802;2024-02-14T10:19:00;8.90;99.90
11152;DHT22;5630;49.342;10.802;2024-02-14T10:21:26;9.00;99.90
11152;DHT22;5630;49.342;10.802;2024-02-14T10:23:53;8.90;99.90
11152;DHT22;5630;49.342;10.802;2024-02-14T10:26:22;9.10;99.90
11152;DHT22;5630;49.342;10.802;2024-02-14T10:28:48;9.40;99.90
11152;DHT22;5630;49.342;10.802;2024-02-14T10:31:14;9.50;99.90
11152;DHT22;5630;49.342;10.802;2024-02-14T10:33:41;9.60;99.90
11152;DHT22;5630;49.342;10.802;2024-02-14T10:36:08;9.60;99.90
11152;DHT22;5630;49.342;10.802;2024-02-14T10:38:34;9.50;99.90
11152;DHT22;5630;49.342;10.802;2024-02-14T10:41:01;9.50;99.90
11152;DHT22;5630;49.342;10.802;2024-02-14T10:43:27;9.60;99.90
11152;DHT22;5630;49.342;10.802;2024-02-14T10:45:54;9.50;99.90
11152;DHT22;5630;49.342;10.802;2024-02-14T10:48:22;9.50;99.90
11152;DHT22;5630;49.342;10.802;2024-02-14T10:50:54;9.40;99.90
11152;DHT22;5630;49.342;10.802;2024-02-14T10:53:22;9.50;99.90
11152;DHT22;5630;49.342;10.802;2024-02-14T10:55:51;9.50;99.90
11152;DHT22;5630;49.342;10.802;2024-02-14T10:58:18;9.60;99.90
11152;DHT22;5630;49.342;10.802;2024-02-14T11:00:45;9.70;99.90
11152;DHT22;5630;49.342;10.802;2024-02-14T11:03:12;9.90;99.90
11152;DHT22;5630;49.342;10.802;2024-02-14T11:05:44;10.10;99.90
11152;DHT22;5630;49.342;10.802;2024-02-14T11:08:19;10.40;99.90
11152;DHT22;5630;49.342;10.802;2024-02-14T11:10:59;10.50;99.90
11152;DHT22;5630;49.342;10.802;2024-02-14T11:13:30;10.50;99.90
11152;DHT22;5630;49.342;10.802;2024-02-14T11:15:59;10.60;99.90
11152;DHT22;5630;49.342;10.802;2024-02-14T11:18:27;10.90;99.90
11152;DHT22;5630;49.342;10.802;2024-02-14T11:20:52;11.00;99.90
11152;DHT22;5630;49.342;10.802;2024-02-14T11:23:22;11.20;99.90
11152;DHT22;5630;49.342;10.802;2024-02-14T11:25:48;11.30;99.90
11152;DHT22;5630;49.342;10.802;2024-02-14T11:30:40;11.10;99.90
11152;DHT22;5630;49.342;10.802;2024-02-14T11:33:19;11.20;99.90
11152;DHT22;5630;49.342;10.802;2024-02-14T11:35:50;11.30;99.90
11152;DHT22;5630;49.342;10.802;2024-02-14T11:38:23;11.20;99.90
11152;DHT22;5630;49.342;10.802;2024-02-14T11:40:51;11.30;99.90
11152;DHT22;5630;49.342;10.802;2024-02-14T11:43:19;11.60;99.90
11152;DHT22;5630;49.342;10.802;2024-02-14T11:45:45;11.80;99.90
11152;DHT22;5630;49.342;10.802;2024-02-14T11:48:15;12.00;99.90
11152;DHT22;5630;49.342;10.802;2024-02-14T11:50:42;12.20;99.90
11152;DHT22;5630;49.342;10.802;2024-02-14T11:53:13;12.40;99.90
11152;DHT22;5630;49.342;10.802;2024-02-14T11:55:40;12.50;99.90
11152;DHT22;5630;49.342;10.802;2024-02-14T11:58:14;12.60;99.90
11152;DHT22;5630;49.342;10.802;2024-02-14T12:00:45;12.70;99.90
11152;DHT22;5630;49.342;10.802;2024-02-14T12:03:20;12.60;99.90
11152;DHT22;5630;49.342;10.802;2024-02-14T12:05:55;12.40;99.90
11152;DHT22;5630;49.342;10.802;2024-02-14T12:08:23;12.20;99.90
11152;DHT22;5630;49.342;10.802;2024-02-14T12:10:48;12.10;99.90
11152;DHT22;5630;49.342;10.802;2024-02-14T12:13:19;11.70;99.90
11152;DHT22;5630;49.342;10.802;2024-02-14T12:15:46;11.90;99.90
11152;DHT22;5630;49.342;10.802;2024-02-14T12:18:13;11.90;99.90
11152;DHT22;5630;49.342;10.802;2024-02-14T12:20:42;11.70;99.90
11152;DHT22;5630;49.342;10.802;2024-02-14T12:23:13;11.80;99.90
11152;DHT22;5630;49.342;10.802;2024-02-14T12:25:39;11.80;99.90
11152;DHT22;5630;49.342;10.802;2024-02-14T12:28:05;12.00;99.90
11152;DHT22;5630;49.342;10.802;2024-02-14T12:30:48;12.20;99.90
11152;DHT22;5630;49.342;10.802;2024-02-14T12:33:26;12.30;99.90
11152;DHT22;5630;49.342;10.802;2024-02-14T12:35:56;12.20;99.90
11152;DHT22;5630;49.342;10.802;2024-02-14T12:38:24;12.10;99.90
11152;DHT22;5630;49.342;10.802;2024-02-14T12:40:50;11.90;99.90
11152;DHT22;5630;49.342;10.802;2024-02-14T12:43:18;11.90;99.90
11152;DHT22;5630;49.342;10.802;2024-02-14T12:45:44;11.80;99.90
11152;DHT22;5630;49.342;10.802;2024-02-14T12:48:13;11.80;99.90
11152;DHT22;5630;49.342;10.802;2024-02-14T12:50:40;11.90;99.90
11152;DHT22;5630;49.342;10.802;2024-02-14T12:53:13;11.90;99.90
11152;DHT22;5630;49.342;10.802;2024-02-14T12:55:38;11.90;99.90
11152;DHT22;5630;49.342;10.802;2024-02-14T12:58:04;11.90;99.90
11152;DHT22;5630;49.342;10.802;2024-02-14T13:00:30;12.00;99.90
11152;DHT22;5630;49.342;10.802;2024-02-14T13:02:57;12.00;99.90
11152;DHT22;5630;49.342;10.802;2024-02-14T13:05:23;12.10;99.90
11152;DHT22;5630;49.342;10.802;2024-02-14T13:07:51;12.10;99.90
11152;DHT22;5630;49.342;10.802;2024-02-14T13:10:16;12.10;99.90
11152;DHT22;5630;49.342;10.802;2024-02-14T13:12:43;12.00;99.90
11152;DHT22;5630;49.342;10.802;2024-02-14T13:15:10;12.00;99.90
11152;DHT22;5630;49.342;10.802;2024-02-14T13:17:36;11.90;99.90
11152;DHT22;5630;49.342;10.802;2024-02-14T13:20:02;11.90;99.90
11152;DHT22;5630;49.342;10.802;2024-02-14T13:22:27;11.80;99.90
11152;DHT22;5630;49.342;10.802;2024-02-14T13:24:53;11.70;99.90
11152;DHT22;5630;49.342;10.802;2024-02-14T13:27:19;11.70;99.90
11152;DHT22;5630;49.342;10.802;2024-02-14T13:29:47;11.60;99.90
11152;DHT22;5630;49.342;10.802;2024-02-14T13:32:12;11.60;99.90
11152;DHT22;5630;49.342;10.802;2024-02-14T13:34:38;11.40;99.90
11152;DHT22;5630;49.342;10.802;2024-02-14T13:37:04;11.40;99.90
11152;DHT22;5630;49.342;10.802;2024-02-14T13:39:29;11.40;99.90
11152;DHT22;5630;49.342;10.802;2024-02-14T13:41:55;11.20;99.90
11152;DHT22;5630;49.342;10.802;2024-02-14T13:44:23;11.00;99.90
11152;DHT22;5630;49.342;10.802;2024-02-14T13:46:50;11.00;99.90
11152;DHT22;5630;49.342;10.802;2024-02-14T13:49:16;11.00;99.90
11152;DHT22;5630;49.342;10.802;2024-02-14T13:51:50;11.00;99.90
11152;DHT22;5630;49.342;10.802;2024-02-14T13:54:17;11.00;99.90
11152;DHT22;5630;49.342;10.802;2024-02-14T13:56:43;11.00;99.90
11152;DHT22;5630;49.342;10.802;2024-02-14T13:59:09;11.00;99.90
11152;DHT22;5630;49.342;10.802;2024-02-14T14:01:35;10.90;99.90
11152;DHT22;5630;49.342;10.802;2024-02-14T14:04:02;10.80;99.90
11152;DHT22;5630;49.342;10.802;2024-02-14T14:06:29;10.80;99.90
11152;DHT22;5630;49.342;10.802;2024-02-14T14:08:55;10.80;99.90
11152;DHT22;5630;49.342;10.802;2024-02-14T14:11:21;10.80;99.90
11152;DHT22;5630;49.342;10.802;2024-02-14T14:13:46;10.90;99.90
11152;DHT22;5630;49.342;10.802;2024-02-14T14:16:15;10.90;99.90
11152;DHT22;5630;49.342;10.802;2024-02-14T14:18:40;10.90;99.90
11152;DHT22;5630;49.342;10.802;2024-02-14T14:21:06;10.90;99.90
11152;DHT22;5630;49.342;10.802;2024-02-14T14:23:32;10.80;99.90
11152;DHT22;5630;49.342;10.802;2024-02-14T14:25:58;10.80;99.90
11152;DHT22;5630;49.342;10.802;2024-02-14T14:28:24;10.80;99.90
11152;DHT22;5630;49.342;10.802;2024-02-14T14:30:56;10.90;99.90
11152;DHT22;5630;49.342;10.802;2024-02-14T14:33:22;10.90;99.90
11152;DHT22;5630;49.342;10.802;2024-02-14T14:35:48;10.80;99.90
11152;DHT22;5630;49.342;10.802;2024-02-14T14:38:19;10.80;99.90
11152;DHT22;5630;49.342;10.802;2024-02-14T14:40:45;10.70;99.90
11152;DHT22;5630;49.342;10.802;2024-02-14T14:43:12;10.80;99.90
11152;DHT22;5630;49.342;10.802;2024-02-14T14:45:37;10.80;99.90
11152;DHT22;5630;49.342;10.802;2024-02-14T14:48:07;10.90;99.90
11152;DHT22;5630;49.342;10.802;2024-02-14T14:50:36;10.90;99.90
11152;DHT22;5630;49.342;10.802;2024-02-14T14:53:02;11.00;99.90
11152;DHT22;5630;49.342;10.802;2024-02-14T14:55:55;10.90;99.90
11152;DHT22;5630;49.342;10.802;2024-02-14T14:58:22;10.90;99.90
11152;DHT22;5630;49.342;10.802;2024-02-14T15:00:52;10.90;99.90
11152;DHT22;5630;49.342;10.802;2024-02-14T15:03:20;10.90;99.90
11152;DHT22;5630;49.342;10.802;2024-02-14T15:05:45;10.90;99.90
11152;DHT22;5630;49.342;10.802;2024-02-14T15:08:13;10.90;99.90
11152;DHT22;5630;49.342;10.802;2024-02-14T15:10:39;10.90;99.90
11152;DHT22;5630;49.342;10.802;2024-02-14T15:13:06;11.00;99.90
11152;DHT22;5630;49.342;10.802;2024-02-14T15:15:34;11.00;99.90
11152;DHT22;5630;49.342;10.802;2024-02-14T15:18:00;10.90;99.90
11152;DHT22;5630;49.342;10.802;2024-02-14T15:20:25;10.90;99.90
11152;DHT22;5630;49.342;10.802;2024-02-14T15:22:51;10.90;99.90
11152;DHT22;5630;49.342;10.802;2024-02-14T15:25:16;10.90;99.90
11152;DHT22;5630;49.342;10.802;2024-02-14T15:27:42;10.90;99.90
11152;DHT22;5630;49.342;10.802;2024-02-14T15:30:20;10.90;99.90
11152;DHT22;5630;49.342;10.802;2024-02-14T15:33:04;10.90;99.90
11152;DHT22;5630;49.342;10.802;2024-02-14T15:35:52;10.80;99.90
11152;DHT22;5630;49.342;10.802;2024-02-14T15:38:20;10.80;99.90
11152;DHT22;5630;49.342;10.802;2024-02-14T15:40:47;10.80;99.90
11152;DHT22;5630;49.342;10.802;2024-02-14T15:43:13;10.80;99.90
11152;DHT22;5630;49.342;10.802;2024-02-14T15:45:39;10.70;99.90
11152;DHT22;5630;49.342;10.802;2024-02-14T15:48:05;10.70;99.90
11152;DHT22;5630;49.342;10.802;2024-02-14T15:50:32;10.60;99.90
11152;DHT22;5630;49.342;10.802;2024-02-14T15:52:58;10.60;99.90